sensor_id;sensor_type;location;lat;lon;timestamp;pressure;altitude;pressure_sealevel;temperature;humidity
83246;BME280;73140;46.754;17.714;2024-01-27T03:18:42;100573.03;;;6.91;64.89
83246;BME280;73140;46.754;17.714;2024-01-27T03:21:14;100457.63;;;6.54;63.65
83246;BME280;73140;46.754;17.714;2024-01-27T03:23:43;100480.44;;;6.55;62.93
83246;BME280;73140;46.754;17.714;2024-01-27T03:26:18;100527.72;;;6.76;63.33
83246;BME280;73140;46.754;17.714;2024-01-27T03:28:44;100528.34;;;6.71;63.60
83246;BME280;73140;46.754;17.714;2024-01-27T03:31:13;100479.31;;;6.28;64.77
83246;BME280;73140;46.754;17.714;2024-01-27T03:33:53;100477.84;;;6.35;63.70
83246;BME280;73140;46.754;17.714;2024-01-27T03:36:31;100459.28;;;6.30;63.20
83246;BME280;73140;46.754;17.714;2024-01-27T03:39:02;100476.66;;;6.27;64.88
83246;BME280;73140;46.754;17.714;2024-01-27T03:41:50;100543.47;;;6.54;63.49
83246;BME280;73140;46.754;17.714;2024-01-27T03:44:31;100520.31;;;6.25;64.91
83246;BME280;73140;46.754;17.714;2024-01-27T03:47:17;100571.16;;;6.46;63.42
83246;BME280;73140;46.754;17.714;2024-01-27T03:49:51;100592.41;;;6.52;65.31
83246;BME280;73140;46.754;17.714;2024-01-27T03:52:17;100617.63;;;6.47;65.16
83246;BME280;73140;46.754;17.714;2024-01-27T03:54:46;100511.16;;;6.36;63.47
83246;BME280;73140;46.754;17.714;2024-01-27T03:57:12;100557.19;;;6.47;64.62
83246;BME280;73140;46.754;17.714;2024-01-27T03:59:40;100561.06;;;6.36;65.42
83246;BME280;73140;46.754;17.714;2024-01-27T04:02:07;100585.56;;;6.35;65.44
83246;BME280;73140;46.754;17.714;2024-01-27T04:05:00;100595.13;;;6.53;64.36
83246;BME280;73140;46.754;17.714;2024-01-27T04:07:44;100533.97;;;6.16;65.12
83246;BME280;73140;46.754;17.714;2024-01-27T04:10:11;100624.03;;;6.53;65.02
83246;BME280;73140;46.754;17.714;2024-01-27T04:12:40;100617.97;;;6.35;65.36
83246;BME280;73140;46.754;17.714;2024-01-27T04:15:16;100705.00;;;6.83;65.23
83246;BME280;73140;46.754;17.714;2024-01-27T04:17:45;100676.97;;;6.83;66.14
83246;BME280;73140;46.754;17.714;2024-01-27T04:20:22;100561.94;;;6.15;66.39
83246;BME280;73140;46.754;17.714;2024-01-27T04:22:48;100565.72;;;6.01;66.49
83246;BME280;73140;46.754;17.714;2024-01-27T04:25:20;100601.06;;;6.29;66.30
83246;BME280;73140;46.754;17.714;2024-01-27T04:27:55;100629.66;;;6.42;66.24
83246;BME280;73140;46.754;17.714;2024-01-27T04:30:29;100616.81;;;6.29;65.54
83246;BME280;73140;46.754;17.714;2024-01-27T04:32:56;100576.06;;;6.17;64.70
83246;BME280;73140;46.754;17.714;2024-01-27T04:35:23;100681.88;;;6.74;64.49
83246;BME280;73140;46.754;17.714;2024-01-27T04:37:52;100579.31;;;6.12;65.31
83246;BME280;73140;46.754;17.714;2024-01-27T04:40:22;100625.50;;;6.47;65.49
83246;BME280;73140;46.754;17.714;2024-01-27T04:42:48;100611.56;;;6.29;66.28
83246;BME280;73140;46.754;17.714;2024-01-27T04:45:15;100608.69;;;6.23;66.49
83246;BME280;73140;46.754;17.714;2024-01-27T04:47:41;100651.09;;;6.32;66.05
83246;BME280;73140;46.754;17.714;2024-01-27T04:50:15;100661.59;;;6.32;67.04
83246;BME280;73140;46.754;17.714;2024-01-27T04:52:54;100557.16;;;6.05;64.32
83246;BME280;73140;46.754;17.714;2024-01-27T04:55:20;100606.25;;;6.27;66.01
83246;BME280;73140;46.754;17.714;2024-01-27T04:57:46;100714.44;;;6.78;65.27
83246;BME280;73140;46.754;17.714;2024-01-27T05:00:20;100636.31;;;6.34;65.10
83246;BME280;73140;46.754;17.714;2024-01-27T05:02:47;100635.28;;;6.30;64.70
83246;BME280;73140;46.754;17.714;2024-01-27T05:05:19;100664.41;;;6.35;65.47
83246;BME280;73140;46.754;17.714;2024-01-27T05:08:06;100582.31;;;6.00;63.72
83246;BME280;73140;46.754;17.714;2024-01-27T05:10:37;100673.50;;;6.63;63.90
83246;BME280;73140;46.754;17.714;2024-01-27T05:13:04;100718.81;;;6.77;64.70
83246;BME280;73140;46.754;17.714;2024-01-27T05:15:30;100720.63;;;6.78;65.41
83246;BME280;73140;46.754;17.714;2024-01-27T05:17:56;100643.31;;;6.54;64.06
83246;BME280;73140;46.754;17.714;2024-01-27T05:20:22;100761.94;;;6.82;64.38
83246;BME280;73140;46.754;17.714;2024-01-27T05:22:48;100601.00;;;6.08;64.46
83246;BME280;73140;46.754;17.714;2024-01-27T05:25:21;100738.16;;;6.79;64.24
83246;BME280;73140;46.754;17.714;2024-01-27T05:27:50;100753.69;;;6.73;64.31
83246;BME280;73140;46.754;17.714;2024-01-27T05:30:17;100741.28;;;6.71;64.43
83246;BME280;73140;46.754;17.714;2024-01-27T05:32:43;100663.19;;;6.28;64.66
83246;BME280;73140;46.754;17.714;2024-01-27T05:35:27;100706.47;;;6.36;65.54
83246;BME280;73140;46.754;17.714;2024-01-27T05:38:02;100674.47;;;6.26;63.94
83246;BME280;73140;46.754;17.714;2024-01-27T05:40:35;100706.34;;;6.14;65.95
83246;BME280;73140;46.754;17.714;2024-01-27T05:43:16;100721.09;;;6.10;66.21
83246;BME280;73140;46.754;17.714;2024-01-27T05:45:55;100679.88;;;5.90;65.05
83246;BME280;73140;46.754;17.714;2024-01-27T05:48:27;100686.47;;;5.82;65.70
83246;BME280;73140;46.754;17.714;2024-01-27T05:50:57;100734.34;;;6.33;64.72
83246;BME280;73140;46.754;17.714;2024-01-27T05:53:29;100715.63;;;6.25;65.82
83246;BME280;73140;46.754;17.714;2024-01-27T05:56:07;100757.44;;;6.40;64.83
83246;BME280;73140;46.754;17.714;2024-01-27T05:58:34;100804.81;;;6.60;65.08
83246;BME280;73140;46.754;17.714;2024-01-27T06:01:00;100776.34;;;6.50;64.11
83246;BME280;73140;46.754;17.714;2024-01-27T06:03:26;100752.16;;;6.21;66.11
83246;BME280;73140;46.754;17.714;2024-01-27T06:05:55;100669.25;;;5.69;64.56
83246;BME280;73140;46.754;17.714;2024-01-27T06:08:21;100824.66;;;6.35;65.38
83246;BME280;73140;46.754;17.714;2024-01-27T06:10:47;100810.72;;;6.18;67.08
83246;BME280;73140;46.754;17.714;2024-01-27T06:13:15;100848.13;;;6.32;66.32
83246;BME280;73140;46.754;17.714;2024-01-27T06:15:42;100821.16;;;6.16;66.57
83246;BME280;73140;46.754;17.714;2024-01-27T06:18:14;100814.41;;;6.22;65.80
83246;BME280;73140;46.754;17.714;2024-01-27T06:20:41;100777.88;;;6.08;65.90
83246;BME280;73140;46.754;17.714;2024-01-27T06:23:09;100802.09;;;6.21;66.58
83246;BME280;73140;46.754;17.714;2024-01-27T06:25:35;100764.50;;;6.22;65.85
83246;BME280;73140;46.754;17.714;2024-01-27T06:28:04;100794.28;;;6.22;65.16
83246;BME280;73140;46.754;17.714;2024-01-27T06:30:35;100745.13;;;5.83;65.50
83246;BME280;73140;46.754;17.714;2024-01-27T06:33:09;100776.78;;;6.03;66.27
83246;BME280;73140;46.754;17.714;2024-01-27T06:35:38;100768.47;;;5.94;67.06
83246;BME280;73140;46.754;17.714;2024-01-27T06:38:07;100817.22;;;6.07;66.79
83246;BME280;73140;46.754;17.714;2024-01-27T06:40:33;100737.44;;;5.68;66.68
83246;BME280;73140;46.754;17.714;2024-01-27T06:42:59;100721.00;;;5.72;66.35
83246;BME280;73140;46.754;17.714;2024-01-27T06:45:27;100753.03;;;5.84;67.09
83246;BME280;73140;46.754;17.714;2024-01-27T06:48:02;100855.78;;;6.45;65.60
83246;BME280;73140;46.754;17.714;2024-01-27T06:50:36;100775.25;;;6.08;66.29
83246;BME280;73140;46.754;17.714;2024-01-27T06:53:02;100770.41;;;5.98;66.04
83246;BME280;73140;46.754;17.714;2024-01-27T06:55:37;100821.47;;;6.23;64.92
83246;BME280;73140;46.754;17.714;2024-01-27T06:58:08;100871.91;;;6.52;65.72
83246;BME280;73140;46.754;17.714;2024-01-27T07:00:34;100833.50;;;6.37;64.95
83246;BME280;73140;46.754;17.714;2024-01-27T07:03:02;100882.50;;;6.54;65.88
83246;BME280;73140;46.754;17.714;2024-01-27T07:05:35;100791.09;;;6.29;64.02
83246;BME280;73140;46.754;17.714;2024-01-27T07:08:05;100902.16;;;6.62;65.01
83246;BME280;73140;46.754;17.714;2024-01-27T07:10:32;100806.09;;;6.32;63.74
83246;BME280;73140;46.754;17.714;2024-01-27T07:12:58;100799.31;;;6.17;63.87
83246;BME280;73140;46.754;17.714;2024-01-27T07:15:26;100865.75;;;6.71;62.45
83246;BME280;73140;46.754;17.714;2024-01-27T07:17:53;100843.63;;;6.66;62.61
83246;BME280;73140;46.754;17.714;2024-01-27T07:20:20;100882.06;;;6.64;64.09
83246;BME280;73140;46.754;17.714;2024-01-27T07:22:52;100865.88;;;6.55;61.88
83246;BME280;73140;46.754;17.714;2024-01-27T07:25:19;100842.09;;;6.52;62.23
83246;BME280;73140;46.754;17.714;2024-01-27T07:27:45;100867.00;;;6.60;60.71
83246;BME280;73140;46.754;17.714;2024-01-27T07:30:12;100885.47;;;6.81;60.45
83246;BME280;73140;46.754;17.714;2024-01-27T07:32:41;100848.78;;;6.45;61.88
83246;BME280;73140;46.754;17.714;2024-01-27T07:35:12;100877.63;;;6.63;62.08
83246;BME280;73140;46.754;17.714;2024-01-27T07:37:43;100848.22;;;6.33;62.09
83246;BME280;73140;46.754;17.714;2024-01-27T07:40:18;100858.50;;;6.29;61.74
83246;BME280;73140;46.754;17.714;2024-01-27T07:42:45;100804.97;;;6.07;61.89
83246;BME280;73140;46.754;17.714;2024-01-27T07:45:11;100854.97;;;6.28;62.38
83246;BME280;73140;46.754;17.714;2024-01-27T07:47:40;100818.34;;;5.94;63.65
83246;BME280;73140;46.754;17.714;2024-01-27T07:50:10;100838.72;;;5.82;62.91
83246;BME280;73140;46.754;17.714;2024-01-27T07:52:36;100820.88;;;5.93;63.82
83246;BME280;73140;46.754;17.714;2024-01-27T07:55:12;100804.38;;;5.78;63.64
83246;BME280;73140;46.754;17.714;2024-01-27T07:57:46;100816.56;;;6.12;63.01
83246;BME280;73140;46.754;17.714;2024-01-27T08:00:13;100865.81;;;6.53;63.85
83246;BME280;73140;46.754;17.714;2024-01-27T08:02:39;100911.81;;;6.82;63.39
83246;BME280;73140;46.754;17.714;2024-01-27T08:05:07;100925.16;;;6.85;62.75
83246;BME280;73140;46.754;17.714;2024-01-27T08:10:22;100985.00;;;7.29;61.09
83246;BME280;73140;46.754;17.714;2024-01-27T08:12:54;100972.84;;;7.31;62.28
83246;BME280;73140;46.754;17.714;2024-01-27T08:15:23;100947.56;;;6.96;60.59
83246;BME280;73140;46.754;17.714;2024-01-27T08:18:19;100887.91;;;6.76;61.37
83246;BME280;73140;46.754;17.714;2024-01-27T08:20:45;100972.03;;;7.13;59.93
83246;BME280;73140;46.754;17.714;2024-01-27T08:23:12;100960.84;;;7.19;61.31
83246;BME280;73140;46.754;17.714;2024-01-27T08:25:40;101014.47;;;7.40;60.23
83246;BME280;73140;46.754;17.714;2024-01-27T08:28:15;100921.63;;;7.04;60.01
83246;BME280;73140;46.754;17.714;2024-01-27T08:30:50;101011.16;;;7.44;60.59
83246;BME280;73140;46.754;17.714;2024-01-27T08:33:19;100881.13;;;6.81;62.00
83246;BME280;73140;46.754;17.714;2024-01-27T08:35:54;100979.00;;;7.32;61.65
83246;BME280;73140;46.754;17.714;2024-01-27T08:38:20;100963.78;;;7.25;60.38
83246;BME280;73140;46.754;17.714;2024-01-27T08:40:49;100988.41;;;7.46;60.50
83246;BME280;73140;46.754;17.714;2024-01-27T08:43:23;100923.41;;;7.24;61.09
83246;BME280;73140;46.754;17.714;2024-01-27T08:45:49;100892.13;;;7.11;58.81
83246;BME280;73140;46.754;17.714;2024-01-27T08:48:17;101025.09;;;7.81;58.62
83246;BME280;73140;46.754;17.714;2024-01-27T08:50:43;100897.72;;;7.19;58.82
83246;BME280;73140;46.754;17.714;2024-01-27T08:53:09;101007.44;;;7.79;59.11
83246;BME280;73140;46.754;17.714;2024-01-27T08:55:35;101006.25;;;7.91;59.24
83246;BME280;73140;46.754;17.714;2024-01-27T08:58:09;101021.78;;;7.85;58.24
83246;BME280;73140;46.754;17.714;2024-01-27T09:00:35;101019.97;;;7.84;56.36
83246;BME280;73140;46.754;17.714;2024-01-27T09:03:01;100984.66;;;7.79;57.34
83246;BME280;73140;46.754;17.714;2024-01-27T09:05:28;100946.63;;;7.53;56.67
83246;BME280;73140;46.754;17.714;2024-01-27T09:07:55;100963.78;;;7.65;56.65
83246;BME280;73140;46.754;17.714;2024-01-27T09:10:21;101034.41;;;8.13;56.77
83246;BME280;73140;46.754;17.714;2024-01-27T09:12:47;101033.88;;;8.01;56.38
83246;BME280;73140;46.754;17.714;2024-01-27T09:15:14;101067.38;;;8.24;57.12
83246;BME280;73140;46.754;17.714;2024-01-27T09:17:40;101053.13;;;8.00;56.81
83246;BME280;73140;46.754;17.714;2024-01-27T09:20:18;100984.78;;;7.82;57.11
83246;BME280;73140;46.754;17.714;2024-01-27T09:22:45;101058.31;;;8.18;57.59
83246;BME280;73140;46.754;17.714;2024-01-27T09:25:13;101047.94;;;8.01;56.03
83246;BME280;73140;46.754;17.714;2024-01-27T09:27:39;100984.91;;;7.85;57.50
83246;BME280;73140;46.754;17.714;2024-01-27T09:30:06;101011.84;;;8.20;57.48
83246;BME280;73140;46.754;17.714;2024-01-27T09:32:37;101098.88;;;8.40;55.24
83246;BME280;73140;46.754;17.714;2024-01-27T09:35:04;101004.44;;;7.90;52.94
83246;BME280;73140;46.754;17.714;2024-01-27T09:37:30;101011.88;;;8.00;54.55
83246;BME280;73140;46.754;17.714;2024-01-27T09:39:57;101064.41;;;8.36;54.50
83246;BME280;73140;46.754;17.714;2024-01-27T09:42:26;100983.50;;;7.93;55.55
83246;BME280;73140;46.754;17.714;2024-01-27T09:44:53;101022.25;;;8.17;55.85
83246;BME280;73140;46.754;17.714;2024-01-27T09:47:22;100997.00;;;8.22;56.51
83246;BME280;73140;46.754;17.714;2024-01-27T09:49:50;101078.28;;;8.73;56.74
83246;BME280;73140;46.754;17.714;2024-01-27T09:52:17;101037.09;;;8.54;57.57
83246;BME280;73140;46.754;17.714;2024-01-27T09:54:43;101044.13;;;8.55;55.66
83246;BME280;73140;46.754;17.714;2024-01-27T09:57:10;101075.06;;;8.80;56.30
83246;BME280;73140;46.754;17.714;2024-01-27T09:59:40;101059.38;;;8.63;55.71
83246;BME280;73140;46.754;17.714;2024-01-27T10:02:11;101009.31;;;8.42;55.71
83246;BME280;73140;46.754;17.714;2024-01-27T10:04:38;101013.53;;;8.18;55.97
83246;BME280;73140;46.754;17.714;2024-01-27T10:07:07;101039.72;;;8.34;56.76
83246;BME280;73140;46.754;17.714;2024-01-27T10:09:34;101027.69;;;8.00;56.69
83246;BME280;73140;46.754;17.714;2024-01-27T10:12:01;100973.53;;;7.86;56.54
83246;BME280;73140;46.754;17.714;2024-01-27T10:14:37;101032.09;;;8.21;55.24
83246;BME280;73140;46.754;17.714;2024-01-27T10:17:05;100990.56;;;7.94;56.16
83246;BME280;73140;46.754;17.714;2024-01-27T10:19:31;101036.38;;;8.38;55.92
83246;BME280;73140;46.754;17.714;2024-01-27T10:22:00;100999.09;;;8.29;55.87
83246;BME280;73140;46.754;17.714;2024-01-27T10:24:28;100942.47;;;8.00;56.42
83246;BME280;73140;46.754;17.714;2024-01-27T10:27:09;101030.56;;;8.67;55.95
83246;BME280;73140;46.754;17.714;2024-01-27T10:29:35;100981.22;;;8.42;54.25
83246;BME280;73140;46.754;17.714;2024-01-27T10:32:08;101004.47;;;8.32;54.99
83246;BME280;73140;46.754;17.714;2024-01-27T10:34:34;101032.75;;;8.77;53.99
83246;BME280;73140;46.754;17.714;2024-01-27T10:37:01;101018.84;;;8.81;54.51
83246;BME280;73140;46.754;17.714;2024-01-27T10:39:28;100949.38;;;8.38;54.91
83246;BME280;73140;46.754;17.714;2024-01-27T10:41:54;101015.28;;;9.03;52.71
83246;BME280;73140;46.754;17.714;2024-01-27T10:44:20;100947.47;;;8.56;52.22
83246;BME280;73140;46.754;17.714;2024-01-27T10:46:48;101005.28;;;8.72;53.26
83246;BME280;73140;46.754;17.714;2024-01-27T10:49:15;100997.13;;;8.88;52.63
83246;BME280;73140;46.754;17.714;2024-01-27T10:51:44;101007.06;;;8.95;52.77
83246;BME280;73140;46.754;17.714;2024-01-27T10:54:14;100939.94;;;8.65;52.47
83246;BME280;73140;46.754;17.714;2024-01-27T10:56:43;100979.19;;;8.80;51.28
83246;BME280;73140;46.754;17.714;2024-01-27T10:59:12;100977.03;;;8.92;51.57
83246;BME280;73140;46.754;17.714;2024-01-27T11:01:40;101000.81;;;9.16;52.19
83246;BME280;73140;46.754;17.714;2024-01-27T11:04:08;100970.81;;;9.14;50.69
83246;BME280;73140;46.754;17.714;2024-01-27T11:06:37;100984.75;;;9.10;49.87
83246;BME280;73140;46.754;17.714;2024-01-27T11:09:08;100982.97;;;9.09;51.07
83246;BME280;73140;46.754;17.714;2024-01-27T11:11:46;100964.25;;;9.02;50.50
83246;BME280;73140;46.754;17.714;2024-01-27T11:14:13;100917.31;;;8.72;49.38
83246;BME280;73140;46.754;17.714;2024-01-27T11:16:39;100921.34;;;8.62;49.52
83246;BME280;73140;46.754;17.714;2024-01-27T11:19:17;100975.41;;;8.95;49.82
83246;BME280;73140;46.754;17.714;2024-01-27T11:21:44;100941.47;;;8.82;51.07
83246;BME280;73140;46.754;17.714;2024-01-27T11:24:17;100934.75;;;8.90;49.81
83246;BME280;73140;46.754;17.714;2024-01-27T11:26:45;100956.50;;;9.07;50.47
83246;BME280;73140;46.754;17.714;2024-01-27T11:29:11;100950.75;;;9.17;48.45
83246;BME280;73140;46.754;17.714;2024-01-27T11:31:49;100892.53;;;8.90;48.56
83246;BME280;73140;46.754;17.714;2024-01-27T11:34:17;100900.28;;;8.86;48.00
83246;BME280;73140;46.754;17.714;2024-01-27T11:36:45;100953.78;;;9.28;48.49
83246;BME280;73140;46.754;17.714;2024-01-27T11:39:30;100893.78;;;9.00;48.88
83246;BME280;73140;46.754;17.714;2024-01-27T11:42:13;100969.00;;;9.35;48.42
83246;BME280;73140;46.754;17.714;2024-01-27T11:44:42;100918.16;;;8.93;48.67
83246;BME280;73140;46.754;17.714;2024-01-27T11:47:18;100855.91;;;8.52;47.67
83246;BME280;73140;46.754;17.714;2024-01-27T11:49:52;100855.34;;;8.61;48.53
83246;BME280;73140;46.754;17.714;2024-01-27T11:52:24;100969.38;;;9.22;48.45
83246;BME280;73140;46.754;17.714;2024-01-27T11:55:08;100854.63;;;8.65;48.04
83246;BME280;73140;46.754;17.714;2024-01-27T11:57:36;100867.00;;;8.89;48.89
83246;BME280;73140;46.754;17.714;2024-01-27T12:00:03;100825.38;;;8.82;49.91
83246;BME280;73140;46.754;17.714;2024-01-27T12:02:33;100958.50;;;9.36;47.18
83246;BME280;73140;46.754;17.714;2024-01-27T12:05:02;100928.13;;;9.25;47.47
83246;BME280;73140;46.754;17.714;2024-01-27T12:07:28;100953.66;;;9.48;48.66
83246;BME280;73140;46.754;17.714;2024-01-27T12:09:55;100952.88;;;9.51;48.42
83246;BME280;73140;46.754;17.714;2024-01-27T12:12:21;100884.59;;;9.13;48.91
83246;BME280;73140;46.754;17.714;2024-01-27T12:14:49;100916.72;;;9.25;48.22
83246;BME280;73140;46.754;17.714;2024-01-27T12:17:16;100854.31;;;9.03;48.48
83246;BME280;73140;46.754;17.714;2024-01-27T12:19:46;100920.47;;;9.57;47.72
83246;BME280;73140;46.754;17.714;2024-01-27T12:22:23;100883.84;;;9.17;47.93
83246;BME280;73140;46.754;17.714;2024-01-27T12:24:53;100885.34;;;9.34;47.35
83246;BME280;73140;46.754;17.714;2024-01-27T12:27:19;100912.97;;;9.43;48.16
83246;BME280;73140;46.754;17.714;2024-01-27T12:29:49;100847.19;;;9.00;49.18
83246;BME280;73140;46.754;17.714;2024-01-27T12:32:18;100921.81;;;9.44;47.27
83246;BME280;73140;46.754;17.714;2024-01-27T12:34:45;100897.59;;;9.32;47.65
83246;BME280;73140;46.754;17.714;2024-01-27T12:37:11;100868.69;;;9.11;47.89
83246;BME280;73140;46.754;17.714;2024-01-27T12:39:41;100907.97;;;9.51;48.09
83246;BME280;73140;46.754;17.714;2024-01-27T12:42:08;100947.22;;;9.66;47.05
83246;BME280;73140;46.754;17.714;2024-01-27T12:44:34;100899.34;;;9.31;46.01
83246;BME280;73140;46.754;17.714;2024-01-27T12:47:03;100930.84;;;9.50;46.46
83246;BME280;73140;46.754;17.714;2024-01-27T12:49:35;100902.97;;;9.35;47.58
83246;BME280;73140;46.754;17.714;2024-01-27T12:52:06;100928.47;;;9.58;45.97
83246;BME280;73140;46.754;17.714;2024-01-27T12:54:35;100870.41;;;9.34;46.71
83246;BME280;73140;46.754;17.714;2024-01-27T12:57:01;100857.63;;;9.21;48.05
83246;BME280;73140;46.754;17.714;2024-01-27T12:59:28;100916.53;;;9.44;47.76
83246;BME280;73140;46.754;17.714;2024-01-27T13:01:54;100930.84;;;9.50;48.10
83246;BME280;73140;46.754;17.714;2024-01-27T13:04:22;100837.38;;;8.96;47.10
83246;BME280;73140;46.754;17.714;2024-01-27T13:06:48;100933.75;;;9.58;47.48
83246;BME280;73140;46.754;17.714;2024-01-27T13:09:14;100871.75;;;9.23;48.00
83246;BME280;73140;46.754;17.714;2024-01-27T13:11:43;100879.50;;;9.19;47.72
83246;BME280;73140;46.754;17.714;2024-01-27T13:14:10;100877.69;;;9.18;47.93
83246;BME280;73140;46.754;17.714;2024-01-27T13:16:38;100916.72;;;9.50;47.78
83246;BME280;73140;46.754;17.714;2024-01-27T13:19:04;100923.47;;;9.42;49.67
83246;BME280;73140;46.754;17.714;2024-01-27T13:21:32;100895.78;;;9.31;48.35
83246;BME280;73140;46.754;17.714;2024-01-27T13:23:58;100839.56;;;8.84;48.52
83246;BME280;73140;46.754;17.714;2024-01-27T13:26:24;100893.53;;;9.18;48.42
83246;BME280;73140;46.754;17.714;2024-01-27T13:28:50;100861.84;;;8.92;49.10
83246;BME280;73140;46.754;17.714;2024-01-27T13:31:16;100921.28;;;9.30;48.23
83246;BME280;73140;46.754;17.714;2024-01-27T13:33:43;100918.28;;;9.20;47.87
83246;BME280;73140;46.754;17.714;2024-01-27T13:36:10;100882.13;;;8.93;48.19
83246;BME280;73140;46.754;17.714;2024-01-27T13:38:47;100876.59;;;8.87;47.35
83246;BME280;73140;46.754;17.714;2024-01-27T13:41:19;100911.75;;;9.10;49.30
83246;BME280;73140;46.754;17.714;2024-01-27T13:43:45;100846.31;;;8.54;49.25
83246;BME280;73140;46.754;17.714;2024-01-27T13:46:12;100906.81;;;8.95;48.59
83246;BME280;73140;46.754;17.714;2024-01-27T13:48:38;100936.81;;;9.21;48.74
83246;BME280;73140;46.754;17.714;2024-01-27T13:51:04;100873.13;;;8.88;47.95
83246;BME280;73140;46.754;17.714;2024-01-27T13:53:30;100864.69;;;8.75;47.94
83246;BME280;73140;46.754;17.714;2024-01-27T13:55:57;100841.09;;;8.55;49.59
83246;BME280;73140;46.754;17.714;2024-01-27T13:58:28;100933.44;;;9.01;48.67
83246;BME280;73140;46.754;17.714;2024-01-27T14:00:56;100873.28;;;8.69;48.31
83246;BME280;73140;46.754;17.714;2024-01-27T14:03:22;100948.13;;;8.95;48.61
83246;BME280;73140;46.754;17.714;2024-01-27T14:05:52;100890.66;;;8.64;48.28
83246;BME280;73140;46.754;17.714;2024-01-27T14:08:18;100862.06;;;8.52;48.49
83246;BME280;73140;46.754;17.714;2024-01-27T14:10:45;100904.75;;;8.65;48.13
83246;BME280;73140;46.754;17.714;2024-01-27T14:13:15;100941.59;;;8.85;49.21
83246;BME280;73140;46.754;17.714;2024-01-27T14:15:41;100901.81;;;8.57;48.36
83246;BME280;73140;46.754;17.714;2024-01-27T14:18:07;100874.25;;;8.28;48.59
83246;BME280;73140;46.754;17.714;2024-01-27T14:20:38;100965.94;;;8.78;48.79
83246;BME280;73140;46.754;17.714;2024-01-27T14:23:04;100937.91;;;8.58;48.73
83246;BME280;73140;46.754;17.714;2024-01-27T14:25:30;100982.97;;;8.64;48.96
83246;BME280;73140;46.754;17.714;2024-01-27T14:27:58;100975.16;;;8.67;49.11
83246;BME280;73140;46.754;17.714;2024-01-27T14:30:28;100969.53;;;8.58;48.83
83246;BME280;73140;46.754;17.714;2024-01-27T14:32:54;100955.47;;;8.58;48.74
83246;BME280;73140;46.754;17.714;2024-01-27T14:35:20;100935.03;;;8.31;49.51
83246;BME280;73140;46.754;17.714;2024-01-27T14:37:46;100939.03;;;8.22;50.33
83246;BME280;73140;46.754;17.714;2024-01-27T14:40:13;100885.91;;;7.90;48.51
83246;BME280;73140;46.754;17.714;2024-01-27T14:42:39;100862.47;;;7.76;48.23
83246;BME280;73140;46.754;17.714;2024-01-27T14:45:07;100980.94;;;8.36;48.33
83246;BME280;73140;46.754;17.714;2024-01-27T14:47:36;100962.09;;;8.06;47.79
83246;BME280;73140;46.754;17.714;2024-01-27T14:50:02;100941.03;;;8.06;47.93
83246;BME280;73140;46.754;17.714;2024-01-27T14:52:28;100953.94;;;8.00;47.69
83246;BME280;73140;46.754;17.714;2024-01-27T14:54:54;100875.63;;;7.55;48.30
83246;BME280;73140;46.754;17.714;2024-01-27T14:57:20;100983.69;;;8.19;47.97
83246;BME280;73140;46.754;17.714;2024-01-27T14:59:50;100895.28;;;7.63;49.27
83246;BME280;73140;46.754;17.714;2024-01-27T15:02:25;100948.13;;;7.88;48.21
83246;BME280;73140;46.754;17.714;2024-01-27T15:04:52;100937.34;;;7.82;49.68
83246;BME280;73140;46.754;17.714;2024-01-27T15:07:21;100975.41;;;8.09;49.11
83246;BME280;73140;46.754;17.714;2024-01-27T15:09:48;100915.66;;;7.67;50.56
83246;BME280;73140;46.754;17.714;2024-01-27T15:12:14;100898.50;;;7.56;50.17
83246;BME280;73140;46.754;17.714;2024-01-27T15:14:40;100946.97;;;7.61;50.72
83246;BME280;73140;46.754;17.714;2024-01-27T15:17:07;100945.50;;;7.68;50.08
83246;BME280;73140;46.754;17.714;2024-01-27T15:19:33;100907.09;;;7.52;50.37
83246;BME280;73140;46.754;17.714;2024-01-27T15:22:02;100923.22;;;7.59;51.50
83246;BME280;73140;46.754;17.714;2024-01-27T15:24:30;100854.66;;;7.17;49.76
83246;BME280;73140;46.754;17.714;2024-01-27T15:27:05;100929.81;;;7.50;50.55
83246;BME280;73140;46.754;17.714;2024-01-27T15:29:34;100950.56;;;7.63;50.50
83246;BME280;73140;46.754;17.714;2024-01-27T15:32:00;101013.34;;;7.73;51.17
83246;BME280;73140;46.754;17.714;2024-01-27T15:34:26;100909.50;;;7.07;52.63
83246;BME280;73140;46.754;17.714;2024-01-27T15:37:03;100918.06;;;7.23;51.52
83246;BME280;73140;46.754;17.714;2024-01-27T15:39:30;100947.13;;;7.26;52.26
83246;BME280;73140;46.754;17.714;2024-01-27T15:41:56;100910.31;;;6.87;52.32
83246;BME280;73140;46.754;17.714;2024-01-27T15:44:23;100951.44;;;7.04;53.55
83246;BME280;73140;46.754;17.714;2024-01-27T15:46:49;100979.50;;;7.23;53.55
83246;BME280;73140;46.754;17.714;2024-01-27T15:49:19;100982.03;;;7.22;53.12
83246;BME280;73140;46.754;17.714;2024-01-27T15:51:46;100979.84;;;7.11;53.60
83246;BME280;73140;46.754;17.714;2024-01-27T15:54:13;100943.78;;;6.90;54.39
83246;BME280;73140;46.754;17.714;2024-01-27T15:56:41;100996.06;;;7.21;53.63
83246;BME280;73140;46.754;17.714;2024-01-27T15:59:07;101002.06;;;7.18;54.50
83246;BME280;73140;46.754;17.714;2024-01-27T16:01:33;101027.13;;;7.29;54.57
83246;BME280;73140;46.754;17.714;2024-01-27T16:03:59;101065.78;;;7.30;55.07
83246;BME280;73140;46.754;17.714;2024-01-27T16:06:25;100952.22;;;6.65;54.71
83246;BME280;73140;46.754;17.714;2024-01-27T16:08:51;101045.84;;;6.98;55.93
83246;BME280;73140;46.754;17.714;2024-01-27T16:11:19;100951.09;;;6.60;56.43
83246;BME280;73140;46.754;17.714;2024-01-27T16:13:45;100991.44;;;6.78;55.75
83246;BME280;73140;46.754;17.714;2024-01-27T16:16:11;100981.97;;;6.64;56.29
83246;BME280;73140;46.754;17.714;2024-01-27T16:18:37;100992.44;;;6.62;56.52
83246;BME280;73140;46.754;17.714;2024-01-27T16:21:03;101050.81;;;6.92;57.44